Time;durP1;ratioP1;P1;durP2;ratioP2;P2;SDS_P1;SDS_P2;PMS_P1;PMS_P2;Temp;Humidity;BMP_temperature;BMP_pressure;BME280_temperature;BME280_humidity;BME280_pressure;Samples;Min_cycle;Max_cycle;Signal;HPM_P1;HPM_P2
2022/03/09 00:00:36;;;;;;;148.43;85.10;;;26.30;2201.60;;;;;;4938585;29;20070;-82
2022/03/09 00:10:18;;;;;;;130.57;73.93;;;26.20;2201.60;;;;;;4917502;29;20043;-82
2022/03/09 00:12:44;;;;;;;115.13;63.28;;;26.30;2201.60;;;;;;4916760;29;20058;-81
2022/03/09 00:15:10;;;;;;;78.25;48.83;;;26.20;2201.60;;;;;;4916134;29;20027;-80
2022/03/09 00:17:36;;;;;;;66.72;39.85;;;26.20;2201.60;;;;;;4917847;29;20119;-83
2022/03/09 00:20:03;;;;;;;56.83;36.15;;;25.90;2201.60;;;;;;4916422;29;20066;-84
2022/03/09 00:22:28;;;;;;;55.42;33.78;;;25.80;2201.60;;;;;;4931919;29;20027;-82
2022/03/09 00:24:54;;;;;;;80.43;48.28;;;25.90;2201.60;;;;;;4932176;29;20469;-83
2022/03/09 00:27:20;;;;;;;94.53;60.03;;;25.80;2201.60;;;;;;4916346;29;20384;-82
2022/03/09 00:29:46;;;;;;;96.75;60.55;;;25.90;2201.60;;;;;;4917137;29;20020;-83
2022/03/09 00:32:13;;;;;;;79.65;48.15;;;26.00;2201.60;;;;;;4916382;29;20028;-82
2022/03/09 00:34:39;;;;;;;85.15;50.70;;;26.00;2201.60;;;;;;4931708;29;20115;-81
2022/03/09 00:37:05;;;;;;;86.65;52.72;;;26.10;2201.60;;;;;;4917303;29;20098;-84
2022/03/09 00:39:31;;;;;;;92.90;55.65;;;26.00;2201.60;;;;;;4932165;29;20502;-83
2022/03/09 00:41:57;;;;;;;93.45;54.05;;;26.00;2201.60;;;;;;4932249;29;20473;-84
2022/03/09 00:44:22;;;;;;;89.53;54.58;;;26.10;2201.60;;;;;;4931602;29;20052;-84
2022/03/09 00:46:48;;;;;;;87.60;54.35;;;26.00;2201.60;;;;;;4917416;29;20069;-82
2022/03/09 00:49:15;;;;;;;97.85;57.15;;;26.00;2201.60;;;;;;4932137;29;20060;-85
2022/03/09 00:51:40;;;;;;;94.05;56.80;;;26.10;2201.60;;;;;;4931788;29;20024;-84
2022/03/09 00:54:07;;;;;;;99.53;59.35;;;26.10;2201.60;;;;;;4931962;29;20107;-85
2022/03/09 00:56:33;;;;;;;108.15;64.03;;;25.90;2201.60;;;;;;4931782;29;20035;-85
2022/03/09 00:58:59;;;;;;;100.55;59.28;;;25.80;2201.60;;;;;;4915852;29;20024;-85
2022/03/09 01:01:24;;;;;;;102.72;60.88;;;25.60;2201.60;;;;;;4931985;29;20027;-85
2022/03/09 01:03:51;;;;;;;111.93;66.93;;;25.70;2201.60;;;;;;4931885;29;20031;-83
2022/03/09 01:06:17;;;;;;;114.25;66.88;;;25.80;2201.60;;;;;;4931665;29;20086;-82
2022/03/09 01:08:43;;;;;;;108.88;67.35;;;25.80;2201.60;;;;;;4934919;29;20438;-84
2022/03/09 01:11:09;;;;;;;115.38;66.05;;;25.70;2201.60;;;;;;4919070;29;20472;-83
2022/03/09 01:13:36;;;;;;;138.02;78.35;;;25.80;2201.60;;;;;;4919089;29;20042;-84
2022/03/09 01:16:01;;;;;;;138.23;82.15;;;25.70;2201.60;;;;;;4918979;29;20048;-84
2022/03/09 01:18:27;;;;;;;119.90;76.00;;;25.60;2201.60;;;;;;4936633;29;20488;-83
2022/03/09 01:20:53;;;;;;;167.40;97.80;;;25.70;2201.60;;;;;;4922899;29;20462;-83
2022/03/09 01:23:19;;;;;;;158.40;90.97;;;25.70;2201.60;;;;;;4938663;29;20024;-84
2022/03/09 01:25:45;;;;;;;140.48;82.20;;;25.60;2201.60;;;;;;4938311;29;20058;-85
2022/03/09 01:28:11;;;;;;;130.50;77.20;;;25.60;2201.60;;;;;;4938415;29;20035;-85
2022/03/09 01:30:36;;;;;;;123.70;75.18;;;25.70;2201.60;;;;;;4938498;29;20110;-82
2022/03/09 01:33:02;;;;;;;178.25;96.28;;;25.60;2201.60;;;;;;4939212;29;20156;-84
2022/03/09 01:35:28;;;;;;;144.68;83.60;;;25.60;2201.60;;;;;;4938333;29;20472;-84
2022/03/09 01:37:54;;;;;;;106.75;61.85;;;0.90;2201.60;;;;;;4939567;29;20023;-84
2022/03/09 01:40:19;;;;;;;127.13;75.50;;;0.70;2201.60;;;;;;4938109;29;20477;-84
2022/03/09 01:42:45;;;;;;;127.93;72.68;;;0.80;2201.60;;;;;;4938267;29;20024;-85
2022/03/09 01:45:13;;;;;;;117.35;71.68;;;0.80;2201.60;;;;;;4938225;29;20082;-84
2022/03/09 01:47:39;;;;;;;135.50;78.72;;;0.90;2201.60;;;;;;4937780;29;20135;-83
2022/03/09 01:50:08;;;;;;;141.27;80.88;;;0.80;2201.60;;;;;;4938283;29;20076;-85
2022/03/09 01:52:35;;;;;;;133.57;76.70;;;0.60;2201.60;;;;;;4922262;29;20078;-85
2022/03/09 01:55:01;;;;;;;153.90;85.18;;;0.60;2201.60;;;;;;4937894;29;20024;-84
2022/03/09 01:57:30;;;;;;;154.77;83.07;;;0.70;2201.60;;;;;;4938131;29;20474;-83
2022/03/09 01:59:56;;;;;;;163.55;84.90;;;0.80;2201.60;;;;;;4921830;29;20052;-83
2022/03/09 02:02:22;;;;;;;160.23;84.82;;;0.80;2201.60;;;;;;4937792;29;20023;-84
2022/03/09 02:04:48;;;;;;;249.57;111.85;;;0.70;2201.60;;;;;;4922094;29;20027;-83
2022/03/09 02:07:14;;;;;;;188.27;98.68;;;0.50;2201.60;;;;;;4924157;29;20111;-84
2022/03/09 02:09:44;;;;;;;194.23;97.55;;;0.50;2201.60;;;;;;4940959;29;20059;-85
2022/03/09 02:12:15;;;;;;;179.23;95.38;;;0.60;2201.60;;;;;;4940950;29;20035;-84
2022/03/09 02:14:50;;;;;;;180.27;98.13;;;0.70;2201.60;;;;;;4940586;29;20030;-85
2022/03/09 02:17:21;;;;;;;178.80;99.95;;;0.70;2201.60;;;;;;4940946;29;20031;-84
2022/03/09 02:19:49;;;;;;;167.30;89.88;;;0.50;2201.60;;;;;;4940747;29;20082;-84
2022/03/09 02:22:26;;;;;;;163.50;89.97;;;0.40;2201.60;;;;;;4940452;29;20050;-85
2022/03/09 02:24:52;;;;;;;174.68;92.20;;;0.40;2201.60;;;;;;4940947;29;20513;-83
2022/03/09 02:27:20;;;;;;;170.10;83.50;;;0.40;2201.60;;;;;;4957742;29;20074;-84
2022/03/09 02:29:47;;;;;;;155.38;81.00;;;0.40;2201.60;;;;;;4939417;29;20027;-83
2022/03/09 02:32:13;;;;;;;161.30;85.68;;;0.20;2201.60;;;;;;4940544;29;20067;-84
2022/03/09 02:34:39;;;;;;;156.38;85.90;;;0.30;2201.60;;;;;;4940489;29;20465;-84
2022/03/09 02:37:05;;;;;;;189.50;99.78;;;0.20;2201.60;;;;;;4940045;29;20031;-83
2022/03/09 02:39:30;;;;;;;172.57;90.80;;;0.10;2201.60;;;;;;4940534;29;20025;-84
2022/03/09 02:41:56;;;;;;;154.70;86.75;;;0.10;2201.60;;;;;;4940060;29;20023;-84
2022/03/09 02:44:22;;;;;;;106.13;64.43;;;0.00;2201.60;;;;;;4940239;29;20027;-83
2022/03/09 02:46:48;;;;;;;110.85;62.88;;;13.00;2201.60;;;;;;4940257;29;20098;-83
2022/03/09 02:49:14;;;;;;;99.38;56.42;;;12.90;2201.60;;;;;;4940116;29;20059;-85
2022/03/09 02:51:40;;;;;;;102.43;59.63;;;13.00;2201.60;;;;;;4940363;29;20346;-84
2022/03/09 02:54:06;;;;;;;111.75;62.80;;;13.00;2201.60;;;;;;4940360;29;20031;-83
2022/03/09 02:56:32;;;;;;;126.05;67.03;;;12.90;2201.60;;;;;;4939906;29;20027;-84
2022/03/09 02:58:58;;;;;;;133.95;70.53;;;13.00;2201.60;;;;;;4940131;29;20123;-85
2022/03/09 03:01:24;;;;;;;152.32;80.13;;;12.90;2201.60;;;;;;4940023;29;20074;-84
2022/03/09 03:03:50;;;;;;;130.40;70.00;;;13.00;2201.60;;;;;;4939871;29;20074;-83
2022/03/09 03:06:16;;;;;;;143.63;72.97;;;13.00;2201.60;;;;;;4939501;29;20023;-81
2022/03/09 03:08:42;;;;;;;106.43;57.88;;;13.10;2201.60;;;;;;4939877;29;20043;-81
2022/03/09 03:11:10;;;;;;;90.60;52.80;;;13.30;2201.60;;;;;;4939626;29;20027;-83
2022/03/09 03:13:37;;;;;;;88.70;51.72;;;13.30;2201.60;;;;;;4940026;29;20031;-83
2022/03/09 03:16:04;;;;;;;89.57;54.47;;;13.40;2201.60;;;;;;4939708;29;20052;-81
2022/03/09 03:18:30;;;;;;;88.60;53.03;;;13.50;2201.60;;;;;;4939750;29;20027;-82
2022/03/09 03:20:56;;;;;;;103.00;55.40;;;13.30;2201.60;;;;;;4939612;29;20127;-83
2022/03/09 03:23:25;;;;;;;109.72;59.78;;;13.30;2201.60;;;;;;4939644;29;20028;-84
2022/03/09 03:25:52;;;;;;;89.20;50.22;;;13.30;2201.60;;;;;;4939325;29;20027;-82
2022/03/09 03:28:18;;;;;;;81.97;46.90;;;13.20;2201.60;;;;;;4956646;29;20118;-82
2022/03/09 03:30:44;;;;;;;134.00;66.90;;;13.20;2201.60;;;;;;4939446;29;20019;-81
2022/03/09 03:33:12;;;;;;;162.75;73.53;;;13.20;2201.60;;;;;;4938997;29;20019;-82
2022/03/09 03:35:37;;;;;;;143.32;72.18;;;13.30;2201.60;;;;;;4939552;29;20036;-83
2022/03/09 03:38:03;;;;;;;121.53;66.68;;;13.30;2201.60;;;;;;4938961;29;20031;-81
2022/03/09 03:40:29;;;;;;;122.97;68.88;;;13.30;2201.60;;;;;;4939153;29;20062;-82
2022/03/09 03:42:55;;;;;;;130.40;74.50;;;13.20;2201.60;;;;;;4939383;29;20046;-84
2022/03/09 03:45:21;;;;;;;148.02;80.30;;;13.20;2201.60;;;;;;4938918;29;20061;-82
2022/03/09 03:47:47;;;;;;;142.77;79.95;;;13.10;2201.60;;;;;;4939092;29;20516;-84
2022/03/09 03:50:13;;;;;;;113.80;68.57;;;13.30;2201.60;;;;;;4938976;29;20023;-83
2022/03/09 03:52:39;;;;;;;105.13;62.80;;;13.50;2201.60;;;;;;4938937;29;20023;-85
2022/03/09 03:55:05;;;;;;;99.38;57.25;;;13.60;2201.60;;;;;;4939231;29;20045;-83
2022/03/09 03:57:31;;;;;;;103.30;60.08;;;13.20;2201.60;;;;;;4939245;29;20047;-84
2022/03/09 03:59:57;;;;;;;89.32;56.00;;;13.60;2201.60;;;;;;4938858;29;20589;-84
2022/03/09 04:02:23;;;;;;;84.95;48.30;;;13.70;2201.60;;;;;;4939146;29;20053;-84
2022/03/09 04:04:50;;;;;;;86.82;49.53;;;38.40;2201.60;;;;;;4939101;29;20023;-84
2022/03/09 04:07:16;;;;;;;98.25;55.70;;;13.70;2201.60;;;;;;4938321;29;20078;-83
2022/03/09 04:09:42;;;;;;;86.32;49.95;;;13.60;2201.60;;;;;;4939528;29;20085;-82
2022/03/09 04:12:09;;;;;;;76.70;47.55;;;13.60;2201.60;;;;;;4939039;29;20034;-84
2022/03/09 04:14:35;;;;;;;83.80;47.95;;;38.40;2201.60;;;;;;4938689;29;20023;-84
2022/03/09 04:17:01;;;;;;;85.05;45.78;;;38.40;2201.60;;;;;;4938773;29;20078;-87
2022/03/09 04:19:27;;;;;;;92.40;55.08;;;38.50;2201.60;;;;;;4938860;29;20437;-81
2022/03/09 04:21:53;;;;;;;114.15;68.63;;;38.60;2201.60;;;;;;4938335;29;20034;-81
2022/03/09 04:24:19;;;;;;;92.97;56.70;;;38.60;2201.60;;;;;;4938637;29;20023;-83
2022/03/09 04:26:45;;;;;;;116.80;65.05;;;38.70;2201.60;;;;;;4938516;29;20078;-84
2022/03/09 04:29:11;;;;;;;103.03;60.50;;;38.70;2201.60;;;;;;4938447;29;20556;-83
2022/03/09 04:31:37;;;;;;;108.13;61.15;;;38.50;2201.60;;;;;;4938599;29;20073;-81
2022/03/09 04:34:03;;;;;;;111.13;65.25;;;38.60;2201.60;;;;;;4938370;29;20023;-82
2022/03/09 04:36:29;;;;;;;90.80;52.30;;;38.50;2201.60;;;;;;4938629;29;20410;-82
2022/03/09 04:38:55;;;;;;;91.88;54.35;;;38.60;2201.60;;;;;;4938808;29;20023;-82
2022/03/09 04:41:21;;;;;;;98.07;55.65;;;38.60;2201.60;;;;;;4938434;29;20023;-85
2022/03/09 04:43:48;;;;;;;112.82;61.72;;;38.50;2201.60;;;;;;4938552;29;20142;-84
2022/03/09 04:46:14;;;;;;;94.57;53.42;;;38.70;2201.60;;;;;;4938555;29;20027;-85
2022/03/09 04:48:40;;;;;;;89.50;50.70;;;38.70;2201.60;;;;;;4955379;29;20067;-83
2022/03/09 04:51:07;;;;;;;89.25;49.95;;;38.70;2201.60;;;;;;4938728;29;20027;-84
2022/03/09 04:53:32;;;;;;;112.15;63.05;;;38.70;2201.60;;;;;;4940552;29;20062;-82
2022/03/09 04:55:58;;;;;;;118.28;66.30;;;38.80;2201.60;;;;;;4942193;29;20031;-85
2022/03/09 04:58:24;;;;;;;121.93;68.43;;;38.70;2201.60;;;;;;4942417;29;20049;-83
2022/03/09 05:00:51;;;;;;;109.65;61.08;;;38.60;2201.60;;;;;;4942271;29;20357;-86
2022/03/09 05:03:18;;;;;;;111.97;62.83;;;38.50;2201.60;;;;;;4942018;29;20034;-82
2022/03/09 05:05:44;;;;;;;117.97;61.53;;;38.40;2201.60;;;;;;4942334;29;20034;-83
2022/03/09 05:08:09;;;;;;;103.28;56.53;;;38.70;2201.60;;;;;;4941749;29;20067;-82
2022/03/09 05:10:36;;;;;;;120.50;62.88;;;38.70;2201.60;;;;;;4942036;29;20019;-82
2022/03/09 05:13:02;;;;;;;120.90;63.95;;;38.80;2201.60;;;;;;4942179;29;20457;-84
2022/03/09 05:15:28;;;;;;;135.55;70.90;;;38.60;2201.60;;;;;;4942149;29;20031;-81
2022/03/09 05:17:54;;;;;;;117.20;63.47;;;38.60;2201.60;;;;;;4941798;29;20465;-83
2022/03/09 05:20:20;;;;;;;86.40;48.60;;;38.60;2201.60;;;;;;4942033;29;20027;-85
2022/03/09 05:22:47;;;;;;;77.65;46.60;;;38.70;2201.60;;;;;;4942002;29;20410;-85
2022/03/09 05:25:13;;;;;;;81.55;45.17;;;38.80;2201.60;;;;;;4959366;29;20111;-82
2022/03/09 05:27:40;;;;;;;71.85;42.78;;;38.80;2201.60;;;;;;4966349;28;20027;-85
2022/03/09 05:30:08;;;;;;;72.63;40.95;;;38.90;2201.60;;;;;;4947031;29;20028;-82
2022/03/09 05:32:34;;;;;;;77.00;47.75;;;39.10;2201.60;;;;;;4942657;29;20093;-80
2022/03/09 05:35:00;;;;;;;90.38;51.80;;;39.00;2201.60;;;;;;4941767;29;20453;-82
2022/03/09 05:37:28;;;;;;;91.35;50.67;;;39.00;2201.60;;;;;;4941551;29;20102;-83
2022/03/09 05:39:54;;;;;;;87.72;47.22;;;39.00;2201.60;;;;;;4941440;29;20118;-81
2022/03/09 05:42:20;;;;;;;83.93;48.35;;;39.10;2201.60;;;;;;4941215;29;20031;-82
2022/03/09 05:44:46;;;;;;;87.47;50.55;;;38.90;2201.60;;;;;;4941389;29;20032;-83
2022/03/09 05:47:12;;;;;;;90.82;52.20;;;38.80;2201.60;;;;;;4941328;29;20031;-83
2022/03/09 05:49:38;;;;;;;109.90;64.45;;;38.80;2201.60;;;;;;4941365;29;20039;-84
2022/03/09 05:52:04;;;;;;;125.57;69.57;;;38.80;2201.60;;;;;;4941209;29;20466;-84
2022/03/09 05:54:30;;;;;;;119.45;66.10;;;38.70;2201.60;;;;;;4941353;29;20023;-82
2022/03/09 05:56:56;;;;;;;192.30;103.90;;;38.60;2201.60;;;;;;4941181;29;20031;-83
2022/03/09 05:59:22;;;;;;;296.27;155.93;;;38.70;2201.60;;;;;;4940826;29;20031;-82
2022/03/09 06:01:48;;;;;;;254.05;142.15;;;38.50;2201.60;;;;;;4941131;29;20034;-84
2022/03/09 06:04:14;;;;;;;154.95;91.72;;;38.60;2201.60;;;;;;4941194;29;20050;-83
2022/03/09 06:06:39;;;;;;;115.65;66.85;;;38.40;2201.60;;;;;;4940872;29;20461;-82
2022/03/09 06:09:05;;;;;;;110.07;66.20;;;38.50;2201.60;;;;;;4940644;29;20058;-84
2022/03/09 06:11:31;;;;;;;145.70;82.60;;;13.70;2201.60;;;;;;4941176;29;20103;-80
2022/03/09 06:13:57;;;;;;;145.63;81.85;;;13.60;2201.60;;;;;;4940781;29;20453;-82
2022/03/09 06:16:23;;;;;;;148.80;87.20;;;13.50;2201.60;;;;;;4941071;29;20119;-82
2022/03/09 06:18:49;;;;;;;161.68;91.55;;;13.40;2201.60;;;;;;4940938;29;20015;-81
2022/03/09 06:21:15;;;;;;;206.63;123.78;;;13.60;2201.60;;;;;;4940545;29;20470;-82
2022/03/09 06:23:41;;;;;;;174.88;105.25;;;13.70;2201.60;;;;;;4940968;29;20023;-83
2022/03/09 06:26:08;;;;;;;184.40;110.53;;;13.70;2201.60;;;;;;4940445;29;20023;-83
2022/03/09 06:28:35;;;;;;;170.95;100.53;;;13.50;2201.60;;;;;;4940740;29;20035;-83
2022/03/09 06:31:01;;;;;;;150.48;93.20;;;13.40;2201.60;;;;;;4940738;29;20019;-82
2022/03/09 06:33:26;;;;;;;137.35;79.07;;;13.50;2201.60;;;;;;4940437;29;20523;-84
2022/03/09 06:35:52;;;;;;;158.80;90.70;;;13.60;2201.60;;;;;;4940684;29;20031;-83
2022/03/09 06:38:18;;;;;;;136.45;83.38;;;13.50;2201.60;;;;;;4940416;29;20023;-80
2022/03/09 06:40:45;;;;;;;141.98;81.90;;;13.40;2201.60;;;;;;4940412;29;20362;-83
2022/03/09 06:43:11;;;;;;;144.02;80.95;;;13.40;2201.60;;;;;;4940204;29;20019;-81
2022/03/09 06:45:37;;;;;;;148.10;84.60;;;13.10;2201.60;;;;;;4940424;29;20027;-84
2022/03/09 06:48:04;;;;;;;156.75;91.07;;;13.00;2201.60;;;;;;4940019;29;20131;-83
2022/03/09 06:50:30;;;;;;;163.85;99.75;;;12.90;2201.60;;;;;;4940329;29;20027;-85
2022/03/09 06:52:56;;;;;;;197.82;112.30;;;0.00;2201.60;;;;;;4940237;29;20019;-84
2022/03/09 06:55:22;;;;;;;197.13;132.80;;;0.10;2201.60;;;;;;4939978;29;20453;-84
2022/03/09 06:57:48;;;;;;;176.25;106.93;;;0.00;2201.60;;;;;;4940285;29;20480;-85
2022/03/09 07:00:15;;;;;;;151.85;95.82;;;0.10;2201.60;;;;;;4940178;29;20028;-83
2022/03/09 07:02:42;;;;;;;172.88;111.40;;;0.20;2201.60;;;;;;4939597;29;20030;-84
2022/03/09 07:05:09;;;;;;;173.65;111.68;;;0.20;2201.60;;;;;;4940021;29;20051;-83
2022/03/09 07:07:36;;;;;;;171.30;103.10;;;0.30;2201.60;;;;;;4939578;29;20149;-83
2022/03/09 07:10:02;;;;;;;151.40;94.75;;;0.50;2201.60;;;;;;4939755;29;20027;-85
2022/03/09 07:12:28;;;;;;;140.13;89.22;;;0.60;2201.60;;;;;;4939854;29;20035;-84
2022/03/09 07:14:54;;;;;;;141.68;82.40;;;0.70;2201.60;;;;;;4939784;28;20178;-82
2022/03/09 07:17:19;;;;;;;100.95;60.72;;;0.80;2201.60;;;;;;4939303;29;20023;-85
2022/03/09 07:19:45;;;;;;;180.68;107.50;;;0.90;2201.60;;;;;;4939540;29;20034;-81
2022/03/09 07:22:11;;;;;;;170.20;100.72;;;25.70;2201.60;;;;;;4939461;29;20032;-85
2022/03/09 07:24:37;;;;;;;164.18;97.35;;;25.80;2201.60;;;;;;4939718;29;20068;-83
2022/03/09 07:27:03;;;;;;;173.80;103.32;;;25.80;2201.60;;;;;;4939645;29;20023;-82
2022/03/09 07:29:29;;;;;;;175.90;100.65;;;25.90;2201.60;;;;;;4939647;29;20037;-82
2022/03/09 07:31:55;;;;;;;152.50;90.40;;;26.10;2201.60;;;;;;4939521;29;20027;-83
2022/03/09 07:34:22;;;;;;;145.68;89.82;;;26.10;2201.60;;;;;;4939547;29;20078;-82
2022/03/09 07:36:49;;;;;;;160.25;98.43;;;26.30;2201.60;;;;;;4939292;29;20465;-85
2022/03/09 07:39:16;;;;;;;167.25;104.95;;;26.40;2201.60;;;;;;4939599;29;20027;-83
2022/03/09 07:41:42;;;;;;;99.32;56.92;;;26.50;2201.60;;;;;;4939647;29;20035;-84
2022/03/09 07:44:10;;;;;;;92.03;59.30;;;51.20;2227.20;;;;;;4939449;29;20470;-84
2022/03/09 07:46:36;;;;;;;94.00;58.80;;;51.30;2227.20;;;;;;4939270;29;20027;-84
2022/03/09 07:49:02;;;;;;;81.10;50.00;;;51.40;2227.20;;;;;;4939662;29;20421;-86
2022/03/09 07:51:28;;;;;;;80.82;51.85;;;51.50;2227.20;;;;;;4939224;29;20034;-85
2022/03/09 07:53:54;;;;;;;83.50;49.20;;;51.50;2227.20;;;;;;4939400;29;20024;-84
2022/03/09 07:56:20;;;;;;;67.35;41.83;;;51.50;2227.20;;;;;;4939142;29;20031;-84
2022/03/09 07:58:46;;;;;;;71.57;43.60;;;51.60;2227.20;;;;;;4939239;29;20027;-81
2022/03/09 08:01:11;;;;;;;73.38;46.55;;;51.60;2227.20;;;;;;4939040;29;20030;-82
2022/03/09 08:03:39;;;;;;;91.97;58.13;;;51.60;2227.20;;;;;;4938853;29;20170;-83
2022/03/09 08:06:05;;;;;;;71.18;44.63;;;51.60;2227.20;;;;;;4938507;29;20074;-83
2022/03/09 08:08:30;;;;;;;70.07;44.40;;;51.70;2227.20;;;;;;4938637;29;20460;-83
2022/03/09 08:10:56;;;;;;;65.53;44.95;;;51.80;2227.20;;;;;;4938396;29;20046;-82
2022/03/09 08:13:22;;;;;;;59.92;41.97;;;51.90;2227.20;;;;;;4955906;29;20027;-83
2022/03/09 08:15:48;;;;;;;62.38;43.08;;;76.80;2227.20;;;;;;4938839;29;20118;-83
2022/03/09 08:18:14;;;;;;;43.58;29.08;;;76.80;2227.20;;;;;;4938424;29;20430;-83
2022/03/09 08:20:40;;;;;;;57.38;34.88;;;76.80;2227.20;;;;;;4938708;29;20035;-83
2022/03/09 08:23:08;;;;;;;53.00;31.95;;;76.90;2227.20;;;;;;4938973;29;20027;-85
2022/03/09 08:25:34;;;;;;;72.68;45.83;;;77.00;2227.20;;;;;;4938408;29;20082;-82
2022/03/09 08:28:01;;;;;;;102.72;63.03;;;77.00;2227.20;;;;;;4937368;29;20027;-83
2022/03/09 08:30:27;;;;;;;43.42;27.13;;;77.10;2227.20;;;;;;4938431;29;20027;-81
2022/03/09 08:32:53;;;;;;;60.13;35.40;;;77.20;2227.20;;;;;;4938346;29;20087;-83
2022/03/09 08:35:19;;;;;;;56.65;34.50;;;77.20;2227.20;;;;;;4938571;29;20034;-83
2022/03/09 08:37:45;;;;;;;44.80;27.83;;;77.20;2227.20;;;;;;4938451;29;20038;-84
2022/03/09 08:40:12;;;;;;;38.35;25.00;;;77.30;2227.20;;;;;;4938191;29;20034;-83
2022/03/09 08:42:39;;;;;;;39.97;22.40;;;77.40;2227.20;;;;;;4938508;29;20074;-82
2022/03/09 08:45:05;;;;;;;36.60;21.75;;;77.30;2227.20;;;;;;4955677;29;20027;-83
2022/03/09 08:47:31;;;;;;;37.53;23.88;;;77.50;2227.20;;;;;;4952647;28;20119;-80
2022/03/09 08:49:57;;;;;;;35.80;23.02;;;77.40;2227.20;;;;;;4955377;29;20035;-83
2022/03/09 08:52:23;;;;;;;49.80;34.70;;;77.50;2227.20;;;;;;4938436;29;20450;-82
2022/03/09 08:54:53;;;;;;;43.65;27.40;;;77.60;2227.20;;;;;;4938624;29;20103;-82
2022/03/09 08:57:20;;;;;;;36.97;23.88;;;77.60;2227.20;;;;;;4938324;29;20092;-81
2022/03/09 08:59:46;;;;;;;55.08;36.30;;;77.60;2227.20;;;;;;4938368;29;20064;-83
2022/03/09 09:02:12;;;;;;;43.85;32.05;;;77.70;2227.20;;;;;;4955125;29;20023;-86
2022/03/09 09:04:38;;;;;;;42.80;32.45;;;102.40;2227.20;;;;;;4938205;29;20338;-78
2022/03/09 09:07:05;;;;;;;38.00;28.02;;;102.60;2227.20;;;;;;4937680;29;20051;-82
2022/03/09 09:09:32;;;;;;;33.72;23.52;;;102.50;2227.20;;;;;;4938193;29;20389;-79
2022/03/09 09:11:59;;;;;;;44.70;29.08;;;102.90;2227.20;;;;;;4938141;29;20030;-82
2022/03/09 09:14:26;;;;;;;36.45;24.55;;;102.80;2227.20;;;;;;4955165;29;20023;-80
2022/03/09 09:16:52;;;;;;;37.42;24.75;;;102.60;2227.20;;;;;;4938123;29;20166;-81
2022/03/09 09:19:18;;;;;;;44.83;28.95;;;102.70;2227.20;;;;;;4938098;29;20023;-82
2022/03/09 09:21:44;;;;;;;43.17;27.25;;;102.60;2227.20;;;;;;4937858;29;20027;-79
2022/03/09 09:24:10;;;;;;;40.33;26.73;;;102.60;2227.20;;;;;;4955182;29;20089;-77
2022/03/09 09:26:36;;;;;;;37.90;24.63;;;102.60;2227.20;;;;;;4955141;29;20477;-79
2022/03/09 09:29:02;;;;;;;36.35;24.52;;;102.60;2227.20;;;;;;4954921;29;20098;-78
2022/03/09 09:31:28;;;;;;;32.50;21.23;;;102.60;2227.20;;;;;;4938071;29;20038;-84
2022/03/09 09:33:54;;;;;;;65.97;40.30;;;102.60;2227.20;;;;;;4938154;29;20027;-83
2022/03/09 09:36:20;;;;;;;40.85;27.00;;;102.60;2227.20;;;;;;4937745;29;20020;-83
2022/03/09 09:38:48;;;;;;;39.45;25.00;;;102.60;2227.20;;;;;;4938471;29;20023;-85
2022/03/09 09:41:18;;;;;;;38.63;24.30;;;102.70;2227.20;;;;;;4957115;29;20499;-83
2022/03/09 09:43:45;;;;;;;37.53;22.42;;;102.70;2227.20;;;;;;4957763;29;20023;-83
2022/03/09 09:46:15;;;;;;;38.85;22.80;;;102.80;2227.20;;;;;;4957474;29;20365;-84
2022/03/09 09:48:42;;;;;;;45.75;24.25;;;102.80;2227.20;;;;;;4957293;29;20090;-85
2022/03/09 09:51:09;;;;;;;40.92;27.08;;;102.80;2227.20;;;;;;4957015;29;20114;-84
2022/03/09 09:53:35;;;;;;;46.85;29.63;;;102.80;2227.20;;;;;;4958296;28;20082;-83
2022/03/09 09:56:02;;;;;;;45.33;27.95;;;102.70;2227.20;;;;;;4956878;29;20386;-80
2022/03/09 09:58:29;;;;;;;55.95;40.47;;;102.70;2227.20;;;;;;4957372;29;20032;-82
2022/03/09 10:00:56;;;;;;;46.28;32.17;;;102.60;2227.20;;;;;;4957334;28;20029;-78
2022/03/09 10:03:21;;;;;;;68.93;49.88;;;102.70;2227.20;;;;;;4942674;29;20350;-84
2022/03/09 10:05:47;;;;;;;45.92;30.65;;;102.70;2227.20;;;;;;4960249;28;20038;-84
2022/03/09 10:08:16;;;;;;;63.13;40.92;;;102.80;2227.20;;;;;;4957634;28;20380;-83
2022/03/09 10:10:57;;;;;;;56.58;35.20;;;102.90;2227.20;;;;;;4940524;29;20412;-78
2022/03/09 10:13:32;;;;;;;57.30;41.47;;;103.00;2227.20;;;;;;4940753;29;20023;-82
2022/03/09 10:16:20;;;;;;;46.42;31.23;;;103.10;2227.20;;;;;;4957936;29;20023;-84
2022/03/09 10:18:54;;;;;;;56.58;42.63;;;103.00;2227.20;;;;;;4940590;29;20465;-80
2022/03/09 10:21:28;;;;;;;47.72;31.77;;;103.10;2227.20;;;;;;4957922;29;20106;-83
2022/03/09 10:24:09;;;;;;;42.92;29.48;;;103.30;2227.20;;;;;;4957533;29;20031;-78
2022/03/09 10:26:34;;;;;;;39.13;26.95;;;103.30;2227.20;;;;;;4940887;29;20027;-81
2022/03/09 10:29:00;;;;;;;36.00;23.83;;;103.30;2227.20;;;;;;4940697;29;20023;-79
2022/03/09 10:31:43;;;;;;;36.13;23.88;;;103.30;2227.20;;;;;;4940216;29;20037;-82
2022/03/09 10:34:15;;;;;;;38.80;26.45;;;103.20;2227.20;;;;;;4940467;29;20369;-78
2022/03/09 10:36:57;;;;;;;40.70;26.02;;;103.10;2227.20;;;;;;4940567;29;20023;-83
2022/03/09 10:39:25;;;;;;;54.50;37.17;;;103.00;2227.20;;;;;;4939925;29;20031;-84
2022/03/09 10:41:51;;;;;;;39.33;26.02;;;102.90;2227.20;;;;;;4956413;29;20031;-82
2022/03/09 10:44:17;;;;;;;35.70;22.23;;;102.80;2227.20;;;;;;4956054;29;20027;-75
2022/03/09 10:46:50;;;;;;;31.40;22.80;;;102.80;2227.20;;;;;;4956656;28;20074;-75
2022/03/09 10:49:23;;;;;;;28.85;19.25;;;102.80;2227.20;;;;;;4956941;28;20027;-74
2022/03/09 10:51:51;;;;;;;31.55;21.42;;;102.80;2227.20;;;;;;4956489;28;20031;-80
2022/03/09 10:54:22;;;;;;;26.50;18.15;;;102.80;2227.20;;;;;;4956173;29;20065;-79
2022/03/09 10:56:49;;;;;;;25.90;18.38;;;102.80;2227.20;;;;;;4956985;28;20473;-82
2022/03/09 10:59:20;;;;;;;23.02;16.73;;;102.90;2227.20;;;;;;4955543;29;20023;-81
2022/03/09 11:02:07;;;;;;;34.42;22.33;;;103.00;2227.20;;;;;;4958939;28;20055;-81
2022/03/09 11:04:35;;;;;;;36.05;22.17;;;103.10;2227.20;;;;;;4976599;28;20054;-82
2022/03/09 11:07:01;;;;;;;35.08;22.35;;;103.20;2227.20;;;;;;4958642;28;20453;-83
2022/03/09 11:09:27;;;;;;;33.03;22.17;;;103.30;2227.20;;;;;;4976363;28;20074;-78
2022/03/09 11:11:53;;;;;;;51.92;31.42;;;103.20;2227.20;;;;;;4958194;28;20031;-80
2022/03/09 11:14:21;;;;;;;24.83;16.00;;;103.20;2227.20;;;;;;4957877;28;20365;-80
2022/03/09 11:16:48;;;;;;;26.02;16.42;;;103.20;2227.20;;;;;;4976085;28;20026;-82
2022/03/09 11:19:14;;;;;;;25.23;17.50;;;102.90;2227.20;;;;;;4957550;28;20050;-74
2022/03/09 11:21:41;;;;;;;30.38;18.90;;;103.00;2227.20;;;;;;4974701;28;20531;-78
2022/03/09 11:24:08;;;;;;;30.80;19.48;;;102.90;2227.20;;;;;;4976200;28;20046;-74
2022/03/09 11:26:39;;;;;;;27.45;18.13;;;102.90;2227.20;;;;;;4958126;28;20031;-78
2022/03/09 11:29:08;;;;;;;37.05;24.95;;;102.90;2227.20;;;;;;4958358;28;20365;-85
2022/03/09 11:31:52;;;;;;;79.45;27.30;;;102.90;2227.20;;;;;;4958795;28;20469;-84
2022/03/09 11:34:34;;;;;;;57.40;28.05;;;103.00;2227.20;;;;;;4958573;28;20030;-84
2022/03/09 11:37:06;;;;;;;33.83;22.70;;;103.00;2227.20;;;;;;4958485;28;20512;-78
2022/03/09 11:39:32;;;;;;;37.25;25.52;;;103.00;2227.20;;;;;;4958587;28;20445;-80
2022/03/09 11:42:20;;;;;;;37.92;23.80;;;128.00;2252.80;;;;;;4958042;28;20033;-75
2022/03/09 11:44:47;;;;;;;28.80;18.83;;;128.30;2252.80;;;;;;4975260;28;20023;-77
2022/03/09 11:47:13;;;;;;;39.17;25.88;;;103.30;2227.20;;;;;;4975409;28;20118;-83
2022/03/09 11:49:42;;;;;;;34.55;23.35;;;128.50;2252.80;;;;;;4958291;28;20029;-82
2022/03/09 11:52:27;;;;;;;35.45;22.95;;;128.50;2252.80;;;;;;4958273;28;20425;-84
2022/03/09 11:55:00;;;;;;;33.45;24.23;;;128.70;2252.80;;;;;;4958515;28;20066;-82
2022/03/09 11:57:46;;;;;;;;;;;128.60;2252.80;;;;;;4958863;28;20026;-85
2022/03/09 12:00:17;;;;;;;22.88;15.93;;;128.20;2252.80;;;;;;4957362;28;19902;-86
2022/03/09 12:02:45;;;;;;;23.40;15.98;;;128.10;2252.80;;;;;;4975089;28;20350;-82
2022/03/09 12:05:29;;;;;;;21.17;15.25;;;103.30;2227.20;;;;;;4957772;28;20029;-83
2022/03/09 12:08:03;;;;;;;35.42;23.13;;;128.20;2252.80;;;;;;4977287;28;20038;-78
2022/03/09 12:10:47;;;;;;;28.67;18.35;;;128.40;2252.80;;;;;;4963351;28;20034;-84